Time;durP1;ratioP1;P1;durP2;ratioP2;P2;SDS_P1;SDS_P2;PMS_P1;PMS_P2;Temp;Humidity;BMP_temperature;BMP_pressure;BME280_temperature;BME280_humidity;BME280_pressure;Samples;Min_cycle;Max_cycle;Signal;HPM_P1;HPM_P2
2022/04/10 00:01:21;;;;;;;10.33;6.47;;;3.80;99.90;;;;;;5099606;28;20206;-61
2022/04/10 00:03:49;;;;;;;10.03;6.60;;;3.80;99.90;;;;;;5100681;28;22159;-61
2022/04/10 00:06:18;;;;;;;7.23;6.27;;;3.80;99.90;;;;;;5101891;27;20713;-60
2022/04/10 00:08:47;;;;;;;9.30;6.60;;;3.70;99.90;;;;;;5105811;27;20417;-61
2022/04/10 00:11:15;;;;;;;12.47;6.57;;;3.70;99.90;;;;;;5103106;28;20939;-61
2022/04/10 00:13:43;;;;;;;10.23;6.47;;;3.70;99.90;;;;;;5103399;27;20672;-61
2022/04/10 00:16:13;;;;;;;8.60;6.73;;;3.70;99.90;;;;;;5100956;27;20642;-61
2022/04/10 00:18:42;;;;;;;11.17;6.60;;;3.70;99.90;;;;;;5105765;28;20815;-61
2022/04/10 00:21:10;;;;;;;7.87;6.90;;;3.70;99.90;;;;;;5101006;28;20191;-61
2022/04/10 00:23:39;;;;;;;9.20;6.80;;;3.70;99.90;;;;;;5105497;28;20247;-61
2022/04/10 00:26:09;;;;;;;12.87;7.53;;;3.70;99.90;;;;;;5109030;27;20194;-60
2022/04/10 00:28:37;;;;;;;10.73;7.20;;;3.70;99.90;;;;;;5107034;28;20219;-61
2022/04/10 00:31:05;;;;;;;11.80;7.70;;;3.70;99.90;;;;;;5102665;28;20194;-61
2022/04/10 00:33:35;;;;;;;8.67;7.30;;;3.70;99.90;;;;;;5104140;28;20190;-61
2022/04/10 00:36:04;;;;;;;10.10;6.93;;;3.60;99.90;;;;;;5116013;27;20202;-60
2022/04/10 00:38:32;;;;;;;9.27;6.67;;;3.60;99.90;;;;;;5105337;28;20676;-61
2022/04/10 00:41:01;;;;;;;9.73;7.00;;;3.50;99.90;;;;;;5107537;28;20303;-60
2022/04/10 00:43:32;;;;;;;7.93;6.90;;;3.50;99.90;;;;;;5118740;27;20202;-61
2022/04/10 00:46:01;;;;;;;11.80;7.27;;;3.40;99.90;;;;;;5100527;27;20616;-61
2022/04/10 00:48:30;;;;;;;8.90;6.90;;;3.40;99.90;;;;;;5102396;27;20220;-61
2022/04/10 00:53:47;;;;;;;8.07;6.83;;;3.30;99.90;;;;;;5104445;28;20199;-61
2022/04/10 00:56:16;;;;;;;12.83;7.63;;;3.30;99.90;;;;;;5099112;28;20290;-60
2022/04/10 00:58:44;;;;;;;8.93;7.33;;;3.30;99.90;;;;;;5101035;28;20187;-61
2022/04/10 01:01:18;;;;;;;11.80;7.23;;;3.20;99.90;;;;;;5098824;28;20193;-61
2022/04/10 01:03:47;;;;;;;13.80;7.67;;;3.20;99.90;;;;;;5103747;28;20191;-61
2022/04/10 01:06:17;;;;;;;11.60;7.73;;;3.20;99.90;;;;;;5102084;28;20282;-61
2022/04/10 01:08:45;;;;;;;11.70;7.97;;;3.20;99.90;;;;;;5102563;28;20302;-61
2022/04/10 01:11:15;;;;;;;9.10;7.07;;;3.10;99.90;;;;;;5102093;27;20246;-61
2022/04/10 01:13:43;;;;;;;11.07;7.70;;;3.10;99.90;;;;;;5100777;28;20195;-61
2022/04/10 01:16:12;;;;;;;18.20;8.53;;;3.10;99.90;;;;;;5096786;28;20198;-61
2022/04/10 01:18:42;;;;;;;14.23;7.33;;;3.10;99.90;;;;;;5102518;27;20198;-61
2022/04/10 01:21:14;;;;;;;12.30;7.90;;;3.10;99.90;;;;;;5103373;28;20261;-61
2022/04/10 01:23:45;;;;;;;11.77;8.03;;;3.10;99.90;;;;;;5103526;28;21738;-60
2022/04/10 01:26:14;;;;;;;13.73;8.13;;;3.10;99.90;;;;;;5102450;28;20209;-61
2022/04/10 01:28:57;;;;;;;10.80;8.10;;;3.00;99.90;;;;;;5116248;27;20238;-61
2022/04/10 01:31:27;;;;;;;14.20;8.67;;;3.00;99.90;;;;;;5099903;28;20226;-60
2022/04/10 01:33:58;;;;;;;12.50;7.40;;;3.00;99.90;;;;;;5101988;28;20186;-61
2022/04/10 01:36:27;;;;;;;15.07;9.00;;;3.00;99.90;;;;;;5098070;27;20201;-61
2022/04/10 01:38:59;;;;;;;11.93;8.20;;;3.00;99.90;;;;;;5090812;28;20221;-61
2022/04/10 01:41:28;;;;;;;14.60;8.53;;;2.90;99.90;;;;;;5098234;28;20199;-61
2022/04/10 01:43:58;;;;;;;9.33;8.13;;;2.80;99.90;;;;;;5101528;28;20657;-61
2022/04/10 01:46:30;;;;;;;10.10;8.27;;;2.80;99.90;;;;;;5100907;28;20290;-60
2022/04/10 01:49:00;;;;;;;12.93;8.60;;;2.70;99.90;;;;;;5107843;28;20206;-61
2022/04/10 01:51:28;;;;;;;12.87;8.77;;;2.70;99.90;;;;;;5107366;27;20195;-61
2022/04/10 01:53:58;;;;;;;13.37;8.80;;;2.70;99.90;;;;;;5107126;27;20299;-60
2022/04/10 01:56:27;;;;;;;10.43;8.10;;;2.60;99.90;;;;;;5101586;27;20285;-61
2022/04/10 01:58:55;;;;;;;11.80;7.90;;;2.50;99.90;;;;;;5102955;27;20245;-61
2022/04/10 02:01:24;;;;;;;13.37;8.13;;;2.40;99.90;;;;;;5096578;28;20206;-61
2022/04/10 02:03:53;;;;;;;11.97;7.80;;;2.40;99.90;;;;;;5098865;28;20280;-61
2022/04/10 02:06:21;;;;;;;10.80;8.03;;;2.30;99.90;;;;;;5096953;28;20282;-60
2022/04/10 02:08:49;;;;;;;10.70;8.67;;;2.20;99.90;;;;;;5103920;28;20321;-61
2022/04/10 02:11:22;;;;;;;10.97;8.27;;;2.10;99.90;;;;;;5100267;28;20211;-60
2022/04/10 02:13:50;;;;;;;16.90;8.47;;;2.10;99.90;;;;;;5092236;28;20195;-61
2022/04/10 02:16:20;;;;;;;9.50;8.20;;;2.00;99.90;;;;;;5108467;27;20244;-61
2022/04/10 02:18:49;;;;;;;10.03;8.10;;;2.00;99.90;;;;;;5099618;28;20217;-61
2022/04/10 02:21:17;;;;;;;12.20;8.43;;;2.00;99.90;;;;;;5101139;28;20197;-61
2022/04/10 02:23:46;;;;;;;32.30;12.67;;;1.90;99.90;;;;;;5097077;28;20194;-61
2022/04/10 02:26:15;;;;;;;33.87;13.50;;;1.90;99.90;;;;;;5102058;28;20202;-61
2022/04/10 02:28:44;;;;;;;25.50;12.17;;;1.80;99.90;;;;;;5098144;28;20223;-61
2022/04/10 02:31:13;;;;;;;19.57;11.13;;;1.80;99.90;;;;;;5100947;28;20231;-61
2022/04/10 02:33:41;;;;;;;25.37;11.60;;;1.70;99.90;;;;;;5095941;28;20294;-61
2022/04/10 02:36:09;;;;;;;20.00;10.77;;;1.70;99.90;;;;;;5101825;28;20199;-61
2022/04/10 02:38:38;;;;;;;28.33;12.90;;;1.70;99.90;;;;;;5097863;28;20250;-61
2022/04/10 02:41:06;;;;;;;23.63;11.93;;;1.70;99.90;;;;;;5102132;28;20208;-61
2022/04/10 02:43:34;;;;;;;21.83;11.43;;;1.70;99.90;;;;;;5103369;28;20532;-61
2022/04/10 02:46:04;;;;;;;21.83;11.77;;;1.70;99.90;;;;;;5101807;28;20195;-61
2022/04/10 02:48:33;;;;;;;16.70;10.50;;;1.60;99.90;;;;;;5102269;28;20238;-61
2022/04/10 02:51:02;;;;;;;15.53;9.73;;;1.60;99.90;;;;;;5100304;28;20209;-61
2022/04/10 02:53:31;;;;;;;21.43;10.43;;;1.60;99.90;;;;;;5100878;28;20432;-61
2022/04/10 02:55:59;;;;;;;22.10;10.97;;;1.50;99.90;;;;;;5101416;28;20273;-61
2022/04/10 02:58:28;;;;;;;38.97;15.63;;;1.50;99.90;;;;;;5100316;28;20190;-61
2022/04/10 03:00:56;;;;;;;46.23;17.80;;;1.40;99.90;;;;;;5097502;28;20199;-60
2022/04/10 03:03:27;;;;;;;36.33;15.03;;;1.40;99.90;;;;;;5097519;28;20244;-61
2022/04/10 03:05:55;;;;;;;31.40;14.43;;;1.30;99.90;;;;;;5100812;28;20277;-61
2022/04/10 03:08:23;;;;;;;37.90;14.93;;;1.30;99.90;;;;;;5101862;28;20285;-61
2022/04/10 03:10:52;;;;;;;30.13;13.67;;;1.20;99.90;;;;;;5099643;28;20194;-61
2022/04/10 03:13:20;;;;;;;25.63;12.87;;;1.20;99.90;;;;;;5100895;28;20203;-61
2022/04/10 03:15:53;;;;;;;37.47;13.00;;;1.20;99.90;;;;;;5098090;28;20711;-61
2022/04/10 03:18:21;;;;;;;25.17;11.93;;;1.20;99.90;;;;;;5100464;28;20662;-61
2022/04/10 03:20:51;;;;;;;25.17;11.97;;;1.20;99.90;;;;;;5100058;28;20290;-62
2022/04/10 03:23:20;;;;;;;27.17;12.73;;;1.10;99.90;;;;;;5100532;28;20202;-61
2022/04/10 03:25:48;;;;;;;25.23;11.90;;;1.10;99.90;;;;;;5098225;28;20198;-61
2022/04/10 03:28:16;;;;;;;27.27;13.37;;;1.00;99.90;;;;;;5100271;28;20234;-61
2022/04/10 03:30:45;;;;;;;58.63;19.63;;;1.00;99.90;;;;;;5097826;28;20280;-61
2022/04/10 03:33:14;;;;;;;66.00;21.50;;;1.00;99.90;;;;;;5099702;28;20234;-61
2022/04/10 03:35:42;;;;;;;57.23;19.93;;;1.00;99.90;;;;;;5100396;28;20574;-61
2022/04/10 03:38:12;;;;;;;92.83;27.70;;;1.00;99.90;;;;;;5100208;28;20209;-61
2022/04/10 03:40:40;;;;;;;111.00;33.30;;;0.90;99.90;;;;;;5104079;27;20195;-61
2022/04/10 03:43:09;;;;;;;72.80;23.70;;;0.90;99.90;;;;;;5111271;27;20289;-61
2022/04/10 03:45:38;;;;;;;66.37;22.43;;;1.00;99.90;;;;;;5109399;28;20202;-61
2022/04/10 03:48:07;;;;;;;62.07;21.23;;;0.90;99.90;;;;;;5104849;28;20199;-61
2022/04/10 03:50:35;;;;;;;54.47;19.63;;;0.90;99.90;;;;;;5104947;28;20198;-61
2022/04/10 03:53:05;;;;;;;33.83;16.40;;;0.80;99.90;;;;;;5104836;28;20284;-61
2022/04/10 03:55:36;;;;;;;27.77;14.50;;;0.90;99.90;;;;;;5106025;28;20297;-61
2022/04/10 03:58:04;;;;;;;27.07;13.80;;;0.90;99.90;;;;;;5102454;28;20759;-61
2022/04/10 04:00:32;;;;;;;28.23;12.20;;;0.90;99.90;;;;;;5102415;28;20186;-61
2022/04/10 04:03:13;;;;;;;21.97;12.07;;;0.90;99.90;;;;;;5103517;28;20205;-61
2022/04/10 04:05:41;;;;;;;17.20;10.80;;;0.90;99.90;;;;;;5101397;28;20656;-61
2022/04/10 04:08:09;;;;;;;18.57;11.20;;;0.80;99.90;;;;;;5101926;28;20274;-61
2022/04/10 04:10:39;;;;;;;21.73;12.33;;;0.80;99.90;;;;;;5101842;28;20474;-61
2022/04/10 04:13:08;;;;;;;23.27;12.03;;;0.80;99.90;;;;;;5102443;28;20187;-61
2022/04/10 04:15:36;;;;;;;19.00;11.30;;;0.80;99.90;;;;;;5101500;28;21829;-61
2022/04/10 04:18:05;;;;;;;20.17;10.97;;;0.80;99.90;;;;;;5101496;28;20202;-61
2022/04/10 04:20:33;;;;;;;19.17;10.87;;;0.80;99.90;;;;;;5098805;28;20227;-60
2022/04/10 04:23:02;;;;;;;19.03;11.27;;;0.80;99.90;;;;;;5103077;28;20198;-61
2022/04/10 04:25:31;;;;;;;18.27;10.90;;;0.70;99.90;;;;;;5103969;28;20242;-60
2022/04/10 04:28:01;;;;;;;15.97;10.33;;;0.60;99.90;;;;;;5104384;28;20321;-61
2022/04/10 04:30:29;;;;;;;18.43;11.10;;;0.60;99.90;;;;;;5101875;28;20214;-61
2022/04/10 04:32:58;;;;;;;17.70;11.40;;;0.60;99.90;;;;;;5103742;28;20227;-61
2022/04/10 04:35:26;;;;;;;17.80;11.33;;;0.60;99.90;;;;;;5107234;28;20187;-61
2022/04/10 04:37:56;;;;;;;20.93;11.57;;;0.50;99.90;;;;;;5108959;28;20199;-61
2022/04/10 04:40:24;;;;;;;18.03;11.00;;;0.60;99.90;;;;;;5109329;28;20186;-61
2022/04/10 04:42:53;;;;;;;18.23;11.80;;;0.50;99.90;;;;;;5089349;28;20199;-61
2022/04/10 04:45:23;;;;;;;19.93;11.70;;;0.60;99.90;;;;;;5103341;28;20199;-60
2022/04/10 04:47:51;;;;;;;21.97;12.00;;;0.50;99.90;;;;;;5101351;28;20186;-60
2022/04/10 04:50:20;;;;;;;19.27;12.03;;;0.60;99.90;;;;;;5101209;28;20321;-60
2022/04/10 04:52:48;;;;;;;17.70;10.73;;;0.60;99.90;;;;;;5106649;28;20222;-60
2022/04/10 04:55:16;;;;;;;20.23;11.90;;;0.50;99.90;;;;;;5108748;28;20190;-60
2022/04/10 04:57:46;;;;;;;20.93;11.83;;;0.50;99.90;;;;;;5111214;28;20444;-62
2022/04/10 05:00:15;;;;;;;18.43;11.53;;;0.60;99.90;;;;;;5106126;27;20274;-62
2022/04/10 05:02:46;;;;;;;26.07;13.07;;;0.60;99.90;;;;;;5112270;27;20195;-62
2022/04/10 05:05:15;;;;;;;20.40;11.63;;;0.70;99.90;;;;;;5106730;28;20220;-62
2022/04/10 05:07:43;;;;;;;24.90;12.60;;;0.70;99.90;;;;;;5104988;28;20198;-60
2022/04/10 05:10:12;;;;;;;27.33;12.50;;;0.70;99.90;;;;;;5099806;27;20227;-60
2022/04/10 05:12:40;;;;;;;24.77;12.93;;;0.70;99.90;;;;;;5102946;28;20195;-60
2022/04/10 05:15:09;;;;;;;24.20;13.00;;;0.70;99.90;;;;;;5103617;27;20240;-60
2022/04/10 05:17:37;;;;;;;26.20;13.27;;;0.80;99.90;;;;;;5099510;28;20198;-60
2022/04/10 05:20:08;;;;;;;24.93;13.53;;;0.90;99.90;;;;;;5102419;28;20222;-61
2022/04/10 05:22:36;;;;;;;23.93;13.00;;;1.00;99.90;;;;;;5099967;28;20615;-61
2022/04/10 05:25:06;;;;;;;21.90;13.27;;;1.00;99.90;;;;;;5101330;28;20243;-61
2022/04/10 05:27:34;;;;;;;22.80;12.53;;;1.00;99.90;;;;;;5100304;27;20184;-61
2022/04/10 05:30:03;;;;;;;21.23;13.27;;;1.10;99.90;;;;;;5101458;28;20211;-61
2022/04/10 05:32:32;;;;;;;29.87;13.17;;;1.20;99.90;;;;;;5099703;27;20203;-61
2022/04/10 05:35:00;;;;;;;27.00;13.97;;;1.30;99.90;;;;;;5101473;27;20210;-61
2022/04/10 05:37:29;;;;;;;25.70;13.47;;;1.40;99.90;;;;;;5105930;27;20194;-61
2022/04/10 05:39:58;;;;;;;24.70;13.93;;;1.60;99.90;;;;;;5106908;27;20282;-61
2022/04/10 05:42:26;;;;;;;22.67;13.80;;;1.80;99.90;;;;;;5101372;28;20188;-61
2022/04/10 05:45:01;;;;;;;19.33;12.97;;;2.00;99.90;;;;;;5103662;28;20195;-61
2022/04/10 05:47:29;;;;;;;20.87;13.13;;;2.30;99.90;;;;;;5096497;28;20245;-61
2022/04/10 05:49:58;;;;;;;19.73;13.13;;;2.30;99.90;;;;;;5099930;28;20230;-61
2022/04/10 05:52:28;;;;;;;21.03;12.87;;;2.40;99.90;;;;;;5100859;28;20195;-61
2022/04/10 05:54:58;;;;;;;19.80;11.73;;;2.40;99.90;;;;;;5102427;28;20227;-61
2022/04/10 05:57:27;;;;;;;28.63;12.70;;;2.40;99.90;;;;;;5101235;28;20252;-61
2022/04/10 05:59:55;;;;;;;22.80;11.93;;;2.50;99.90;;;;;;5098874;28;20197;-61
2022/04/10 06:02:23;;;;;;;23.27;12.47;;;2.60;99.90;;;;;;5103280;27;20267;-61
2022/04/10 06:04:52;;;;;;;18.23;11.67;;;2.90;99.90;;;;;;5100880;28;20214;-61
2022/04/10 06:07:24;;;;;;;22.80;13.37;;;3.10;99.90;;;;;;5100001;28;20234;-61
2022/04/10 06:09:54;;;;;;;24.30;13.00;;;3.20;99.90;;;;;;5099886;28;20508;-61
2022/04/10 06:12:23;;;;;;;21.43;11.37;;;3.40;99.90;;;;;;5100045;28;20218;-61
2022/04/10 06:14:51;;;;;;;19.83;11.90;;;3.60;99.90;;;;;;5101122;28;20302;-61
2022/04/10 06:17:20;;;;;;;16.00;11.33;;;3.70;99.90;;;;;;5098108;28;20372;-61
2022/04/10 06:19:49;;;;;;;15.77;11.33;;;3.70;99.90;;;;;;5097013;28;20206;-60
2022/04/10 06:22:18;;;;;;;22.43;10.73;;;3.80;99.90;;;;;;5097661;28;20202;-61
2022/04/10 06:24:46;;;;;;;19.70;10.37;;;3.90;99.90;;;;;;5101414;28;20571;-61
2022/04/10 06:27:16;;;;;;;17.27;10.43;;;4.00;99.90;;;;;;5096450;28;20747;-61
2022/04/10 06:29:44;;;;;;;17.53;10.70;;;4.00;99.90;;;;;;5098155;28;20537;-61
2022/04/10 06:32:18;;;;;;;18.70;11.23;;;4.20;99.90;;;;;;5098943;28;20673;-60
2022/04/10 06:34:47;;;;;;;14.43;10.40;;;4.30;99.90;;;;;;5101888;28;20248;-61
2022/04/10 06:37:15;;;;;;;18.00;10.63;;;4.40;99.90;;;;;;5099956;28;20230;-61
2022/04/10 06:39:43;;;;;;;20.70;10.10;;;4.50;99.90;;;;;;5097613;28;20205;-61
2022/04/10 06:42:12;;;;;;;15.97;9.47;;;4.70;99.90;;;;;;5102126;28;20302;-60
2022/04/10 06:44:43;;;;;;;21.40;9.90;;;4.80;99.90;;;;;;5106711;28;20179;-61
2022/04/10 06:47:11;;;;;;;15.53;9.40;;;5.30;99.90;;;;;;5105905;28;20219;-61
2022/04/10 06:49:39;;;;;;;17.30;10.03;;;5.40;99.90;;;;;;5099289;28;20217;-61
2022/04/10 06:52:08;;;;;;;20.97;12.20;;;5.90;99.90;;;;;;5099142;28;20276;-61
2022/04/10 06:54:37;;;;;;;17.03;10.93;;;6.40;99.90;;;;;;5101123;28;20190;-60
2022/04/10 06:57:05;;;;;;;19.50;10.27;;;7.00;99.90;;;;;;5099115;28;20260;-60
2022/04/10 06:59:33;;;;;;;12.33;8.87;;;7.70;99.90;;;;;;5082108;28;20190;-60
2022/04/10 07:02:04;;;;;;;16.60;9.03;;;8.00;99.90;;;;;;5098687;28;20191;-60
2022/04/10 07:04:33;;;;;;;15.03;8.93;;;8.10;99.90;;;;;;5098939;28;20195;-60
2022/04/10 07:07:02;;;;;;;18.10;9.33;;;8.00;99.90;;;;;;5101668;28;20222;-60
2022/04/10 07:09:30;;;;;;;22.13;9.47;;;7.90;99.90;;;;;;5099048;28;20191;-60
2022/04/10 07:11:58;;;;;;;20.13;8.93;;;8.10;99.90;;;;;;5107985;28;20582;-61
2022/04/10 07:14:27;;;;;;;18.93;9.37;;;8.10;99.90;;;;;;5087730;28;20664;-60
2022/04/10 07:16:55;;;;;;;14.27;9.03;;;8.10;99.90;;;;;;5108193;27;20616;-60
2022/04/10 07:19:25;;;;;;;22.57;9.53;;;8.20;99.90;;;;;;5112891;27;20618;-61
2022/04/10 07:24:39;;;;;;;15.80;8.97;;;9.00;99.90;;;;;;5107661;27;20565;-60
2022/04/10 07:27:08;;;;;;;18.95;10.13;;;9.80;99.90;;;;;;5108493;28;20499;-61
2022/04/10 07:29:36;;;;;;;13.10;8.63;;;10.50;99.90;;;;;;5113893;27;20230;-61
2022/04/10 07:32:05;;;;;;;11.63;8.27;;;11.00;99.90;;;;;;5088059;28;20256;-60
2022/04/10 07:34:35;;;;;;;12.10;7.73;;;11.50;99.90;;;;;;5103707;27;20277;-61
2022/04/10 07:37:04;;;;;;;14.97;7.67;;;12.00;99.90;;;;;;5109169;27;20222;-60
2022/04/10 07:39:33;;;;;;;13.20;7.30;;;12.00;99.90;;;;;;5111115;28;20285;-61
2022/04/10 07:42:01;;;;;;;10.27;7.33;;;12.40;99.90;;;;;;5106725;28;20558;-61
2022/04/10 07:44:54;;;;;;;15.07;7.87;;;12.60;99.90;;;;;;5112468;28;20624;-61
2022/04/10 07:47:31;;;;;;;14.27;8.13;;;12.70;99.90;;;;;;5103991;28;20235;-61
2022/04/10 07:50:00;;;;;;;15.20;7.90;;;12.90;99.90;;;;;;5110119;27;20290;-61
2022/04/10 07:52:29;;;;;;;12.77;8.30;;;13.00;99.90;;;;;;5110066;28;20847;-61
2022/04/10 07:54:58;;;;;;;13.80;7.93;;;12.80;99.90;;;;;;5107631;28;20200;-61
2022/04/10 07:57:26;;;;;;;17.50;8.67;;;12.70;99.90;;;;;;5108341;28;20698;-61
2022/04/10 07:59:55;;;;;;;12.07;7.93;;;12.80;99.90;;;;;;5103738;28;20200;-61
2022/04/10 08:02:23;;;;;;;19.23;8.53;;;13.10;99.90;;;;;;5105990;27;20674;-60
2022/04/10 08:04:52;;;;;;;10.57;7.93;;;13.20;99.90;;;;;;5107536;28;20604;-61
2022/04/10 08:07:21;;;;;;;18.97;7.67;;;13.60;99.90;;;;;;5103439;28;20191;-60
2022/04/10 08:09:50;;;;;;;11.77;7.17;;;13.70;99.90;;;;;;5105969;28;20538;-61
2022/04/10 08:12:18;;;;;;;13.43;7.57;;;13.80;99.90;;;;;;5104631;28;20705;-61
2022/04/10 08:14:48;;;;;;;19.53;8.07;;;14.00;99.90;;;;;;5107653;28;20936;-60
2022/04/10 08:17:17;;;;;;;14.00;7.67;;;14.40;99.90;;;;;;5102228;28;20196;-61
2022/04/10 08:19:45;;;;;;;16.20;7.70;;;15.00;99.90;;;;;;5106036;28;20256;-61
2022/04/10 08:22:14;;;;;;;14.00;7.40;;;15.00;99.90;;;;;;5105704;28;20697;-61
2022/04/10 08:24:44;;;;;;;14.73;7.80;;;15.50;99.90;;;;;;5105349;28;20236;-61
2022/04/10 08:27:12;;;;;;;11.23;7.27;;;15.50;99.90;;;;;;5095897;28;20200;-61
2022/04/10 08:29:41;;;;;;;12.87;7.60;;;15.80;99.90;;;;;;5106579;27;20245;-61
2022/04/10 08:32:10;;;;;;;11.77;7.20;;;16.20;99.90;;;;;;5104457;28;20219;-61
2022/04/10 08:34:38;;;;;;;11.53;7.57;;;16.70;99.90;;;;;;5102326;28;20661;-61
2022/04/10 08:37:11;;;;;;;14.03;7.53;;;17.10;99.90;;;;;;5105471;28;20246;-62
2022/04/10 08:39:40;;;;;;;12.30;6.87;;;17.30;99.90;;;;;;5108171;28;20285;-62
2022/04/10 08:42:10;;;;;;;16.30;7.00;;;17.50;99.90;;;;;;5100815;28;20709;-61
2022/04/10 08:44:39;;;;;;;13.33;7.17;;;17.60;99.90;;;;;;5108496;28;20719;-62
2022/04/10 08:47:07;;;;;;;15.50;7.13;;;17.80;99.90;;;;;;5100358;28;20207;-62
2022/04/10 08:49:36;;;;;;;10.63;6.77;;;18.10;99.90;;;;;;5107263;28;20657;-62
2022/04/10 08:52:06;;;;;;;14.13;7.00;;;18.40;99.90;;;;;;5105563;28;20776;-61
2022/04/10 08:54:35;;;;;;;13.00;6.83;;;18.40;99.90;;;;;;5102100;28;20243;-62
2022/04/10 08:57:04;;;;;;;14.07;6.80;;;18.50;99.90;;;;;;5101067;28;20691;-62
2022/04/10 08:59:34;;;;;;;14.83;7.23;;;18.80;99.90;;;;;;5107283;28;20705;-62
2022/04/10 09:02:03;;;;;;;12.23;6.90;;;19.00;99.90;;;;;;5102661;28;20209;-61
2022/04/10 09:04:32;;;;;;;9.50;6.30;;;18.90;99.90;;;;;;5098720;28;20234;-61
2022/04/10 09:07:02;;;;;;;12.53;6.77;;;18.50;99.90;;;;;;5103718;28;20205;-62
2022/04/10 09:09:32;;;;;;;13.63;6.17;;;18.60;99.90;;;;;;5098462;28;20250;-62
2022/04/10 09:12:01;;;;;;;11.17;6.47;;;18.70;99.90;;;;;;5102130;28;20214;-62
2022/04/10 09:14:37;;;;;;;9.77;6.20;;;18.90;99.90;;;;;;5099607;27;20924;-62
2022/04/10 09:17:13;;;;;;;7.37;5.80;;;19.20;99.90;;;;;;5104595;28;20771;-61
2022/04/10 09:19:44;;;;;;;12.43;5.77;;;19.00;99.90;;;;;;5103782;28;20202;-61
2022/04/10 09:22:26;;;;;;;9.00;5.70;;;19.00;99.90;;;;;;5107488;28;20226;-61
2022/04/10 09:25:10;;;;;;;11.93;5.43;;;18.80;99.90;;;;;;5106220;28;20222;-61
2022/04/10 09:27:39;;;;;;;7.87;5.27;;;19.30;98.60;;;;;;5107376;28;20202;-61
2022/04/10 09:30:11;;;;;;;7.53;5.50;;;19.10;99.60;;;;;;5104278;28;20724;-61
2022/04/10 09:32:45;;;;;;;9.43;5.73;;;18.90;98.20;;;;;;5105846;28;20226;-61
2022/04/10 09:35:15;;;;;;;7.17;5.10;;;19.00;99.10;;;;;;5101582;28;20197;-61
2022/04/10 09:37:45;;;;;;;7.50;5.17;;;19.40;99.20;;;;;;5104567;28;20372;-61
2022/04/10 09:40:24;;;;;;;6.73;4.90;;;19.30;97.90;;;;;;5098279;28;20199;-61
2022/04/10 09:42:58;;;;;;;7.77;5.20;;;19.30;99.00;;;;;;5087546;28;20302;-61
2022/04/10 09:45:35;;;;;;;10.47;5.40;;;19.70;95.70;;;;;;5102271;28;20212;-61
2022/04/10 09:48:19;;;;;;;7.53;5.07;;;19.60;96.50;;;;;;5100964;28;20207;-61
2022/04/10 09:50:49;;;;;;;8.73;5.40;;;19.70;97.90;;;;;;5099919;28;20214;-61
2022/04/10 09:53:17;;;;;;;7.67;4.90;;;19.80;96.10;;;;;;5105319;28;20215;-61
2022/04/10 09:55:52;;;;;;;10.60;5.33;;;20.20;96.20;;;;;;5102301;28;20199;-62
2022/04/10 09:58:22;;;;;;;8.40;4.83;;;20.50;95.40;;;;;;5103560;28;20213;-61
2022/04/10 10:00:54;;;;;;;8.63;4.60;;;20.70;94.80;;;;;;5103167;28;20203;-61
2022/04/10 10:03:25;;;;;;;6.23;4.60;;;20.50;93.00;;;;;;5100734;28;20206;-61
2022/04/10 10:05:55;;;;;;;7.03;4.53;;;20.50;92.60;;;;;;5106027;28;20226;-61
2022/04/10 10:08:25;;;;;;;5.40;4.20;;;20.30;93.70;;;;;;5106608;28;20195;-61
2022/04/10 10:10:55;;;;;;;7.03;4.60;;;20.40;92.70;;;;;;5109225;28;20199;-61
2022/04/10 10:13:26;;;;;;;7.87;4.60;;;20.60;92.80;;;;;;5102477;28;20215;-61
2022/04/10 10:15:57;;;;;;;7.07;4.10;;;20.50;91.50;;;;;;5102406;28;20256;-61
2022/04/10 10:18:26;;;;;;;6.47;4.73;;;20.60;90.40;;;;;;5104077;28;20202;-61
2022/04/10 10:20:54;;;;;;;9.83;4.90;;;20.70;91.80;;;;;;5100545;28;20286;-61
2022/04/10 10:23:24;;;;;;;7.13;4.60;;;20.50;93.00;;;;;;5108317;28;20244;-61
2022/04/10 10:26:05;;;;;;;9.57;4.63;;;20.40;92.70;;;;;;5106266;28;20191;-61
2022/04/10 10:29:01;;;;;;;7.07;4.07;;;21.00;92.80;;;;;;5101377;28;20214;-61
2022/04/10 10:31:46;;;;;;;5.63;4.07;;;21.40;91.40;;;;;;5098841;28;20205;-61
2022/04/10 10:34:15;;;;;;;7.60;4.73;;;19.60;90.90;;;;;;5100204;28;20205;-61
2022/04/10 10:36:45;;;;;;;8.63;4.13;;;18.30;92.80;;;;;;5107859;28;20253;-61
2022/04/10 10:39:13;;;;;;;9.23;4.60;;;17.50;93.30;;;;;;5103634;28;20216;-60
2022/04/10 10:41:43;;;;;;;6.50;4.03;;;16.60;92.80;;;;;;5105639;28;20206;-60
2022/04/10 10:44:18;;;;;;;4.40;4.00;;;16.30;94.90;;;;;;5086351;28;20252;-60
2022/04/10 10:47:02;;;;;;;5.47;4.10;;;16.00;93.50;;;;;;5101777;28;20202;-60
2022/04/10 10:49:31;;;;;;;8.03;4.10;;;16.60;94.40;;;;;;5097318;28;20210;-61
2022/04/10 10:52:09;;;;;;;9.43;4.20;;;18.00;93.60;;;;;;5105978;28;20196;-61
2022/04/10 10:54:44;;;;;;;5.93;4.27;;;19.10;93.30;;;;;;5100243;28;20184;-61
2022/04/10 10:57:39;;;;;;;8.23;4.03;;;19.80;91.80;;;;;;5102420;28;20200;-61
2022/04/10 11:00:20;;;;;;;4.50;3.40;;;19.90;93.10;;;;;;5103842;28;20221;-61
2022/04/10 11:02:53;;;;;;;4.67;2.57;;;19.20;91.60;;;;;;5102173;28;20222;-60
2022/04/10 11:05:31;;;;;;;4.90;3.10;;;19.50;90.60;;;;;;5105882;28;20403;-61
2022/04/10 11:08:03;;;;;;;4.10;3.10;;;19.40;89.50;;;;;;5101684;28;20218;-61
2022/04/10 11:10:32;;;;;;;4.60;3.17;;;19.90;91.80;;;;;;5105964;28;20730;-61
2022/04/10 11:13:02;;;;;;;4.73;2.90;;;20.20;89.10;;;;;;5105504;28;20232;-61
2022/04/10 11:15:32;;;;;;;8.47;4.00;;;19.60;92.90;;;;;;5096426;28;20246;-60
2022/04/10 11:18:31;;;;;;;6.60;3.40;;;18.30;91.90;;;;;;5106341;28;20292;-60
2022/04/10 11:21:05;;;;;;;6.80;3.77;;;17.00;91.80;;;;;;5105435;28;20201;-60
2022/04/10 11:23:39;;;;;;;5.20;3.47;;;16.50;93.40;;;;;;5106464;28;20591;-61
2022/04/10 11:26:13;;;;;;;4.63;3.40;;;16.90;93.60;;;;;;5100173;28;20661;-60
2022/04/10 11:28:55;;;;;;;4.87;3.27;;;18.10;93.60;;;;;;5096781;28;20233;-61
2022/04/10 11:31:31;;;;;;;4.07;3.43;;;19.00;92.70;;;;;;5097684;28;20262;-61
2022/04/10 11:34:15;;;;;;;7.27;3.93;;;18.70;92.00;;;;;;5083012;28;20221;-60
2022/04/10 11:36:53;;;;;;;4.37;3.17;;;17.70;91.60;;;;;;5101908;28;20205;-60
2022/04/10 11:39:26;;;;;;;5.70;4.17;;;17.10;92.70;;;;;;5102766;28;20213;-60
2022/04/10 11:41:58;;;;;;;4.50;3.13;;;17.60;93.40;;;;;;5107087;28;20215;-60
2022/04/10 11:44:28;;;;;;;6.27;3.23;;;18.70;92.30;;;;;;5108494;28;20187;-60
2022/04/10 11:46:56;;;;;;;4.20;3.27;;;19.80;92.00;;;;;;5106199;28;20569;-60
2022/04/10 11:49:26;;;;;;;6.73;3.20;;;20.50;91.00;;;;;;5108506;28;20195;-60
2022/04/10 11:51:57;;;;;;;3.73;3.37;;;20.20;90.60;;;;;;5108835;28;20212;-60
2022/04/10 11:54:27;;;;;;;5.83;3.40;;;20.20;91.60;;;;;;5105384;28;20254;-60
2022/04/10 11:56:58;;;;;;;3.37;3.07;;;20.40;90.80;;;;;;5104640;28;20293;-60
2022/04/10 11:59:30;;;;;;;2.97;2.73;;;20.10;90.40;;;;;;5109110;28;20193;-60
2022/04/10 12:01:58;;;;;;;3.77;2.97;;;19.40;90.80;;;;;;5111530;28;20241;-60
2022/04/10 12:04:28;;;;;;;5.83;3.23;;;18.70;90.60;;;;;;5110786;28;20630;-60
2022/04/10 12:07:13;;;;;;;3.67;3.00;;;17.70;91.10;;;;;;5110707;28;20210;-60
2022/04/10 12:09:42;;;;;;;4.03;3.30;;;17.20;91.40;;;;;;5112364;28;20203;-61
2022/04/10 12:12:10;;;;;;;5.73;3.60;;;16.90;92.20;;;;;;5094445;28;20202;-60
2022/04/10 12:14:39;;;;;;;6.77;3.53;;;16.70;93.60;;;;;;5111374;28;20209;-60
2022/04/10 12:17:11;;;;;;;5.00;3.97;;;16.60;94.50;;;;;;5104628;28;20195;-60
2022/04/10 12:19:41;;;;;;;4.73;3.37;;;16.40;94.60;;;;;;5115938;27;20194;-60
2022/04/10 12:22:10;;;;;;;4.20;3.40;;;15.90;91.10;;;;;;5112396;27;20192;-60
2022/04/10 12:24:44;;;;;;;5.07;3.40;;;15.80;93.70;;;;;;5112081;27;20194;-60
2022/04/10 12:27:15;;;;;;;7.77;3.63;;;16.00;93.80;;;;;;5112352;28;20190;-60
2022/04/10 12:29:43;;;;;;;4.73;3.23;;;16.20;93.10;;;;;;5109277;28;20238;-60
2022/04/10 12:32:12;;;;;;;4.93;3.70;;;16.40;93.40;;;;;;5112134;28;20199;-60
2022/04/10 12:34:43;;;;;;;4.30;3.20;;;16.40;93.50;;;;;;5111919;27;20203;-60
2022/04/10 12:37:13;;;;;;;3.33;3.03;;;16.50;95.00;;;;;;5113774;27;20217;-60
2022/04/10 12:39:42;;;;;;;3.63;2.60;;;16.30;91.70;;;;;;5102769;28;20190;-59
2022/04/10 12:42:13;;;;;;;8.43;2.97;;;15.90;90.30;;;;;;5112210;28;20245;-60
2022/04/10 12:44:42;;;;;;;4.97;3.10;;;15.50;92.70;;;;;;5111859;28;20184;-59
2022/04/10 12:47:11;;;;;;;6.43;3.30;;;15.30;92.00;;;;;;5110830;28;20213;-60
2022/04/10 12:49:40;;;;;;;4.63;3.40;;;15.20;95.10;;;;;;5111316;27;20189;-60
2022/04/10 12:52:10;;;;;;;4.07;3.00;;;15.40;95.20;;;;;;5101682;28;20561;-60
2022/04/10 12:54:40;;;;;;;5.43;3.63;;;15.40;95.00;;;;;;5112067;27;20573;-59
2022/04/10 12:57:10;;;;;;;3.50;3.20;;;15.40;93.30;;;;;;5113369;27;20274;-60
2022/04/10 12:59:44;;;;;;;4.40;3.20;;;15.30;94.10;;;;;;5109504;28;20569;-60
2022/04/10 13:02:22;;;;;;;4.47;3.20;;;15.40;94.10;;;;;;5111889;28;20550;-60
2022/04/10 13:04:55;;;;;;;4.33;3.17;;;15.20;92.30;;;;;;5110714;28;20248;-60